Aérodrome :
LOGIN :

S'inscrire | Disclaimer

   EN    FR    IT 

 










Légende :    VFR   VFR Marginal   IFR   IFR Intensif   IFR Très Intensif
Visi : 
Plafond : 
>= 8 km
>= 3000ft
5 à 8 km
1000 à 3000 ft
1500m à 5 km
500 à 1000 ft
800 à 1500m
200 à 500 ft
< 800m
< 200 ft
Symboles :   Orages  Brouillard  Fortes neiges  Fortes précipitations  Vent > 20 kt
SIGMETs :   Divers  Orages  Givrage  Turbulence  Onde Orograph.  Cendres Volcan.






- Altitude de l'aérodrome : 125 ft
- Code IATA : MGL


EDLN - Mönchengladbach

DERNIER METAR :
  • 271120Z 14004KT 120V210 1700 BR OVC002 03/03 Q1020

METARs EXPIRÉS :
  • 271050Z 16005KT 120V230 2100 BR OVC002 03/03 Q1020
  • 271020Z 12007KT 2000 BR OVC002 03/02 Q1020
  • 270950Z 15004KT 110V190 4000 BR BKN040 03/02 Q1020
  • 270920Z 13005KT 110V170 8000 NSC 03/02 Q1020
  • 270850Z 12005KT 8000 NSC 03/02 Q1020

TAF AMD TAF EDLN
Valide du 27 à 10h jusqu'au 27 à 18h UTC


271038Z 2710/2718 10004KT 2000 BR BKN002
TEMPO 2713/2718 6000 SCT005



MET'MAP, la Météo Aéronautique d'un coup d'oeil ! - Copyright ORBIFLY Décembre 2007 - Disclaimer

ORBIFLY MET'MAP TEAM :

Programmation & Développement : Alexandra Zaïnal
Sur une idée originale de : Baudouin d'Aumeries
Assistance à la programmation : Marc-Olivier Méhu
Soutien technique & logistique : Manuel Goepfert

Contact : metmap@orbifly.com




SOURCES & CREDITS :

   NOAA